Terminal Aerodrome Forecast
Issued by NWS

Home | Current Version | Previous Version | Text Only | Print | Product List | Glossary On
Versions: 1 2 3 4 5 6 7 8 9 10 11 12 13 14 15 16 17 18
000
FTUS43 KAPX 161700
TAFMBL
TAF
KMBL 161727Z 1618/1718 16011KT P6SM BKN080
     FM162300 11010KT P6SM OVC120
     FM170200 12010KT P6SM OVC100 WS020/17040KT
     FM171400 14011G20KT P6SM FEW040 BKN120
      AMD LTD TO CLD VIS AND WIND=

USA.gov is the U.S. government's official web portal to all federal, state and local government web resources and services.